Terminal Aerodrome Forecast
Issued by NWS

Home | Current Version | Previous Version | Text Only | Print | Product List | Glossary Off
Versions: 1 2 3 4 5 6 7 8 9 10 11 12 13 14 15

000
FTUS43 KICT 211120
TAFSLN
TAF
KSLN 211120Z 2112/2212 18021G29KT P6SM SCT025 OVC080
     FM211500 19017G25KT P6SM BKN015
     FM211800 21017G25KT P6SM -SHRA VCTS BKN025CB
     FM220000 34011G19KT P6SM BKN100
     FM220400 33008KT P6SM SCT250=

USA.gov is the U.S. government's official web portal to all federal, state and local government web resources and services.